sensor_id;sensor_type;location;lat;lon;timestamp;pressure;altitude;pressure_sealevel;temperature;humidity
49342;BME280;35210;41.606;-87.602;2023-06-24T00:00:51;99194.47;;;28.50;45.95
49342;BME280;35210;41.606;-87.602;2023-06-24T00:03:19;99192.00;;;28.37;46.09
49342;BME280;35210;41.606;-87.602;2023-06-24T00:05:47;99193.56;;;28.21;46.65
49342;BME280;35210;41.606;-87.602;2023-06-24T00:08:16;99192.28;;;28.12;46.52
49342;BME280;35210;41.606;-87.602;2023-06-24T00:10:47;99200.78;;;28.04;46.92
49342;BME280;35210;41.606;-87.602;2023-06-24T00:13:16;99199.94;;;27.80;46.86
49342;BME280;35210;41.606;-87.602;2023-06-24T00:15:44;99209.16;;;27.79;45.35
49342;BME280;35210;41.606;-87.602;2023-06-24T00:18:12;99211.03;;;27.67;45.70
49342;BME280;35210;41.606;-87.602;2023-06-24T00:20:40;99208.84;;;27.57;46.07
49342;BME280;35210;41.606;-87.602;2023-06-24T00:23:09;99207.66;;;27.41;47.24
49342;BME280;35210;41.606;-87.602;2023-06-24T00:25:40;99206.03;;;27.40;47.30
49342;BME280;35210;41.606;-87.602;2023-06-24T00:28:10;99208.47;;;27.30;48.52
49342;BME280;35210;41.606;-87.602;2023-06-24T00:30:38;99196.91;;;27.23;49.13
49342;BME280;35210;41.606;-87.602;2023-06-24T00:33:06;99203.63;;;27.32;49.17
49342;BME280;35210;41.606;-87.602;2023-06-24T00:35:37;99199.38;;;27.25;49.38
49342;BME280;35210;41.606;-87.602;2023-06-24T00:38:06;99193.25;;;27.29;49.59
49342;BME280;35210;41.606;-87.602;2023-06-24T00:40:34;99193.50;;;27.28;49.41
49342;BME280;35210;41.606;-87.602;2023-06-24T00:43:02;99190.88;;;27.21;49.89
49342;BME280;35210;41.606;-87.602;2023-06-24T00:45:33;99186.88;;;27.24;49.92
49342;BME280;35210;41.606;-87.602;2023-06-24T00:48:02;99189.09;;;27.15;50.06
49342;BME280;35210;41.606;-87.602;2023-06-24T00:50:30;99201.22;;;27.12;50.10
49342;BME280;35210;41.606;-87.602;2023-06-24T00:52:58;99193.19;;;27.06;50.47
49342;BME280;35210;41.606;-87.602;2023-06-24T00:55:26;99199.34;;;27.13;50.70
49342;BME280;35210;41.606;-87.602;2023-06-24T00:57:56;99201.53;;;27.04;50.92
49342;BME280;35210;41.606;-87.602;2023-06-24T01:00:26;99204.94;;;27.00;51.00
49342;BME280;35210;41.606;-87.602;2023-06-24T01:02:56;99206.44;;;26.96;51.65
49342;BME280;35210;41.606;-87.602;2023-06-24T01:05:24;99215.00;;;26.93;51.65
49342;BME280;35210;41.606;-87.602;2023-06-24T01:07:54;99218.25;;;27.01;51.68
49342;BME280;35210;41.606;-87.602;2023-06-24T01:10:23;99223.31;;;26.98;51.70
49342;BME280;35210;41.606;-87.602;2023-06-24T01:12:52;99213.34;;;26.92;51.62
49342;BME280;35210;41.606;-87.602;2023-06-24T01:15:20;99215.47;;;26.90;51.72
49342;BME280;35210;41.606;-87.602;2023-06-24T01:17:53;99218.78;;;26.92;51.80
49342;BME280;35210;41.606;-87.602;2023-06-24T01:20:27;99227.13;;;26.90;52.05
49342;BME280;35210;41.606;-87.602;2023-06-24T01:23:17;99235.72;;;26.87;51.83
49342;BME280;35210;41.606;-87.602;2023-06-24T01:29:11;99239.94;;;26.83;52.41
49342;BME280;35210;41.606;-87.602;2023-06-24T01:31:48;99238.06;;;26.83;52.16
49342;BME280;35210;41.606;-87.602;2023-06-24T01:34:24;99233.69;;;26.82;52.16
49342;BME280;35210;41.606;-87.602;2023-06-24T01:37:00;99227.44;;;26.82;52.12
49342;BME280;35210;41.606;-87.602;2023-06-24T01:39:32;99222.13;;;26.75;52.14
49342;BME280;35210;41.606;-87.602;2023-06-24T01:42:08;99228.47;;;26.69;52.72
49342;BME280;35210;41.606;-87.602;2023-06-24T01:44:40;99238.69;;;26.67;52.49
49342;BME280;35210;41.606;-87.602;2023-06-24T01:47:11;99229.38;;;26.63;52.67
49342;BME280;35210;41.606;-87.602;2023-06-24T01:49:42;99231.03;;;26.64;53.04
49342;BME280;35210;41.606;-87.602;2023-06-24T01:52:12;99235.84;;;26.62;53.20
49342;BME280;35210;41.606;-87.602;2023-06-24T01:54:42;99229.59;;;26.62;53.21
49342;BME280;35210;41.606;-87.602;2023-06-24T01:57:12;99235.03;;;26.62;52.95
49342;BME280;35210;41.606;-87.602;2023-06-24T01:59:42;99233.59;;;26.59;53.31
49342;BME280;35210;41.606;-87.602;2023-06-24T02:02:19;99241.56;;;26.54;53.22
49342;BME280;35210;41.606;-87.602;2023-06-24T02:04:49;99234.50;;;26.53;53.64
49342;BME280;35210;41.606;-87.602;2023-06-24T02:07:19;99242.16;;;26.56;53.88
49342;BME280;35210;41.606;-87.602;2023-06-24T02:09:48;99242.25;;;26.49;53.90
49342;BME280;35210;41.606;-87.602;2023-06-24T02:12:18;99243.97;;;26.44;54.06
49342;BME280;35210;41.606;-87.602;2023-06-24T02:14:48;99245.69;;;26.38;54.18
49342;BME280;35210;41.606;-87.602;2023-06-24T02:17:20;99238.06;;;26.29;54.85
49342;BME280;35210;41.606;-87.602;2023-06-24T02:19:50;99245.41;;;26.22;55.02
49342;BME280;35210;41.606;-87.602;2023-06-24T02:22:21;99241.66;;;26.23;55.25
49342;BME280;35210;41.606;-87.602;2023-06-24T02:24:49;99238.19;;;26.15;55.53
49342;BME280;35210;41.606;-87.602;2023-06-24T02:27:19;99241.78;;;26.09;55.60
49342;BME280;35210;41.606;-87.602;2023-06-24T02:29:51;99243.06;;;26.07;55.84
49342;BME280;35210;41.606;-87.602;2023-06-24T02:32:22;99236.22;;;26.04;56.59
49342;BME280;35210;41.606;-87.602;2023-06-24T02:34:50;99245.25;;;25.98;56.64
49342;BME280;35210;41.606;-87.602;2023-06-24T02:37:18;99245.69;;;25.95;56.78
49342;BME280;35210;41.606;-87.602;2023-06-24T02:39:47;99239.91;;;25.92;57.01
49342;BME280;35210;41.606;-87.602;2023-06-24T02:42:15;99242.22;;;25.88;57.61
49342;BME280;35210;41.606;-87.602;2023-06-24T02:44:43;99242.66;;;25.85;57.88
49342;BME280;35210;41.606;-87.602;2023-06-24T02:47:13;99244.97;;;25.81;58.02
49342;BME280;35210;41.606;-87.602;2023-06-24T02:49:44;99240.63;;;25.80;58.04
49342;BME280;35210;41.606;-87.602;2023-06-24T02:52:15;99243.31;;;25.80;58.27
49342;BME280;35210;41.606;-87.602;2023-06-24T02:54:44;99245.19;;;25.80;58.46
49342;BME280;35210;41.606;-87.602;2023-06-24T02:57:13;99255.63;;;25.76;59.07
49342;BME280;35210;41.606;-87.602;2023-06-24T02:59:42;99245.47;;;25.72;59.80
49342;BME280;35210;41.606;-87.602;2023-06-24T03:02:10;99249.06;;;25.66;59.91
49342;BME280;35210;41.606;-87.602;2023-06-24T03:04:39;99250.50;;;25.62;59.81
49342;BME280;35210;41.606;-87.602;2023-06-24T03:07:10;99243.88;;;25.58;60.27
49342;BME280;35210;41.606;-87.602;2023-06-24T03:09:39;99238.69;;;25.56;60.52
49342;BME280;35210;41.606;-87.602;2023-06-24T03:12:08;99243.50;;;25.54;60.96
49342;BME280;35210;41.606;-87.602;2023-06-24T03:14:37;99244.75;;;25.51;61.09
49342;BME280;35210;41.606;-87.602;2023-06-24T03:17:05;99244.97;;;25.50;61.19
49342;BME280;35210;41.606;-87.602;2023-06-24T03:19:33;99246.25;;;25.47;61.96
49342;BME280;35210;41.606;-87.602;2023-06-24T03:22:01;99242.31;;;25.43;61.98
49342;BME280;35210;41.606;-87.602;2023-06-24T03:24:31;99252.31;;;25.43;62.12
49342;BME280;35210;41.606;-87.602;2023-06-24T03:26:59;99242.75;;;25.40;61.97
49342;BME280;35210;41.606;-87.602;2023-06-24T03:29:27;99248.16;;;25.40;62.05
49342;BME280;35210;41.606;-87.602;2023-06-24T03:31:56;99244.25;;;25.36;62.28
49342;BME280;35210;41.606;-87.602;2023-06-24T03:34:24;99243.63;;;25.34;62.90
49342;BME280;35210;41.606;-87.602;2023-06-24T03:36:53;99242.19;;;25.32;62.91
49342;BME280;35210;41.606;-87.602;2023-06-24T03:39:21;99235.56;;;25.28;63.15
49342;BME280;35210;41.606;-87.602;2023-06-24T03:41:51;99245.75;;;25.26;63.40
49342;BME280;35210;41.606;-87.602;2023-06-24T03:44:19;99238.72;;;25.25;63.37
49342;BME280;35210;41.606;-87.602;2023-06-24T03:46:48;99227.75;;;25.19;63.15
49342;BME280;35210;41.606;-87.602;2023-06-24T03:49:16;99220.91;;;25.17;62.92
49342;BME280;35210;41.606;-87.602;2023-06-24T03:51:45;99222.59;;;25.11;62.86
49342;BME280;35210;41.606;-87.602;2023-06-24T03:54:13;99226.59;;;25.02;63.02
49342;BME280;35210;41.606;-87.602;2023-06-24T03:56:41;99225.59;;;24.97;63.27
49342;BME280;35210;41.606;-87.602;2023-06-24T03:59:11;99233.03;;;24.95;63.74
49342;BME280;35210;41.606;-87.602;2023-06-24T04:01:39;99223.50;;;24.92;63.62
49342;BME280;35210;41.606;-87.602;2023-06-24T04:04:07;99230.16;;;24.89;64.00
49342;BME280;35210;41.606;-87.602;2023-06-24T04:06:35;99227.66;;;24.88;64.31
49342;BME280;35210;41.606;-87.602;2023-06-24T04:09:03;99233.50;;;24.85;64.63
49342;BME280;35210;41.606;-87.602;2023-06-24T04:11:32;99226.44;;;24.84;64.64
49342;BME280;35210;41.606;-87.602;2023-06-24T04:14:00;99223.34;;;24.80;64.53
49342;BME280;35210;41.606;-87.602;2023-06-24T04:16:30;99219.41;;;24.76;64.42
49342;BME280;35210;41.606;-87.602;2023-06-24T04:18:58;99225.25;;;24.73;64.49
49342;BME280;35210;41.606;-87.602;2023-06-24T04:21:27;99223.81;;;24.71;64.25
49342;BME280;35210;41.606;-87.602;2023-06-24T04:23:55;99225.06;;;24.68;64.07
49342;BME280;35210;41.606;-87.602;2023-06-24T04:26:23;99218.22;;;24.66;64.19
49342;BME280;35210;41.606;-87.602;2023-06-24T04:28:51;99218.44;;;24.64;64.02
49342;BME280;35210;41.606;-87.602;2023-06-24T04:31:19;99216.16;;;24.61;64.19
49342;BME280;35210;41.606;-87.602;2023-06-24T04:33:49;99211.19;;;24.58;64.20
49342;BME280;35210;41.606;-87.602;2023-06-24T04:36:17;99211.59;;;24.55;64.50
49342;BME280;35210;41.606;-87.602;2023-06-24T04:38:45;99205.44;;;24.48;64.85
49342;BME280;35210;41.606;-87.602;2023-06-24T04:41:13;99206.28;;;24.42;65.28
49342;BME280;35210;41.606;-87.602;2023-06-24T04:43:45;99207.75;;;24.38;65.63
49342;BME280;35210;41.606;-87.602;2023-06-24T04:46:14;99207.97;;;24.36;65.70
49342;BME280;35210;41.606;-87.602;2023-06-24T04:48:42;99199.47;;;24.33;66.13
49342;BME280;35210;41.606;-87.602;2023-06-24T04:51:13;99203.63;;;24.29;66.06
49342;BME280;35210;41.606;-87.602;2023-06-24T04:53:41;99199.28;;;24.28;66.15
49342;BME280;35210;41.606;-87.602;2023-06-24T04:56:09;99204.66;;;24.28;65.84
49342;BME280;35210;41.606;-87.602;2023-06-24T04:58:37;99200.50;;;24.25;65.97
49342;BME280;35210;41.606;-87.602;2023-06-24T05:01:05;99203.41;;;24.23;66.20
49342;BME280;35210;41.606;-87.602;2023-06-24T05:03:33;99197.38;;;24.21;66.27
49342;BME280;35210;41.606;-87.602;2023-06-24T05:06:02;99209.22;;;24.20;66.42
49342;BME280;35210;41.606;-87.602;2023-06-24T05:08:31;99198.03;;;24.17;66.87
49342;BME280;35210;41.606;-87.602;2023-06-24T05:10:59;99202.59;;;24.16;66.96
49342;BME280;35210;41.606;-87.602;2023-06-24T05:13:28;99195.97;;;24.12;67.13
49342;BME280;35210;41.606;-87.602;2023-06-24T05:15:56;99195.13;;;24.12;67.04
49342;BME280;35210;41.606;-87.602;2023-06-24T05:18:24;99190.97;;;24.09;67.24
49342;BME280;35210;41.606;-87.602;2023-06-24T05:20:52;99198.66;;;24.06;67.26
49342;BME280;35210;41.606;-87.602;2023-06-24T05:23:20;99195.56;;;24.02;67.56
49342;BME280;35210;41.606;-87.602;2023-06-24T05:25:50;99199.72;;;23.98;68.15
49342;BME280;35210;41.606;-87.602;2023-06-24T05:28:18;99193.09;;;23.94;68.35
49342;BME280;35210;41.606;-87.602;2023-06-24T05:30:46;99193.50;;;23.91;68.85
49342;BME280;35210;41.606;-87.602;2023-06-24T05:33:14;99198.28;;;23.89;69.48
49342;BME280;35210;41.606;-87.602;2023-06-24T05:35:43;99198.69;;;23.86;69.67
49342;BME280;35210;41.606;-87.602;2023-06-24T05:38:11;99196.41;;;23.83;70.21
49342;BME280;35210;41.606;-87.602;2023-06-24T05:40:39;99193.31;;;23.79;70.51
49342;BME280;35210;41.606;-87.602;2023-06-24T05:43:10;99198.91;;;23.78;70.33
49342;BME280;35210;41.606;-87.602;2023-06-24T05:45:38;99193.97;;;23.75;70.91
49342;BME280;35210;41.606;-87.602;2023-06-24T05:48:06;99188.97;;;23.72;71.31
49342;BME280;35210;41.606;-87.602;2023-06-24T05:50:34;99192.09;;;23.69;71.78
49342;BME280;35210;41.606;-87.602;2023-06-24T05:53:02;99196.03;;;23.66;72.22
49342;BME280;35210;41.606;-87.602;2023-06-24T05:55:31;99186.72;;;23.62;72.67
49342;BME280;35210;41.606;-87.602;2023-06-24T05:57:59;99196.03;;;23.59;73.29
49342;BME280;35210;41.606;-87.602;2023-06-24T06:00:28;99187.34;;;23.57;73.47
49342;BME280;35210;41.606;-87.602;2023-06-24T06:02:57;99191.28;;;23.55;73.42
49342;BME280;35210;41.606;-87.602;2023-06-24T06:05:25;99186.47;;;23.50;73.25
49342;BME280;35210;41.606;-87.602;2023-06-24T06:07:53;99193.94;;;23.48;73.62
49342;BME280;35210;41.606;-87.602;2023-06-24T06:10:21;99191.03;;;23.43;74.39
49342;BME280;35210;41.606;-87.602;2023-06-24T06:12:49;99179.63;;;23.41;74.52
49342;BME280;35210;41.606;-87.602;2023-06-24T06:15:19;99181.06;;;23.37;75.34
49342;BME280;35210;41.606;-87.602;2023-06-24T06:17:48;99182.31;;;23.35;75.40
49342;BME280;35210;41.606;-87.602;2023-06-24T06:20:16;99185.22;;;23.33;75.40
49342;BME280;35210;41.606;-87.602;2023-06-24T06:22:44;99187.28;;;23.31;75.38
49342;BME280;35210;41.606;-87.602;2023-06-24T06:25:12;99193.91;;;23.28;75.63
49342;BME280;35210;41.606;-87.602;2023-06-24T06:27:41;99191.22;;;23.22;76.10
49342;BME280;35210;41.606;-87.602;2023-06-24T06:30:11;99194.31;;;23.19;76.48
49342;BME280;35210;41.606;-87.602;2023-06-24T06:32:40;99195.13;;;23.13;77.08
49342;BME280;35210;41.606;-87.602;2023-06-24T06:35:10;99201.53;;;23.12;77.39
49342;BME280;35210;41.606;-87.602;2023-06-24T06:37:38;99207.53;;;23.07;77.75
49342;BME280;35210;41.606;-87.602;2023-06-24T06:40:07;99204.44;;;23.04;77.99
49342;BME280;35210;41.606;-87.602;2023-06-24T06:42:36;99202.78;;;23.03;77.94
49342;BME280;35210;41.606;-87.602;2023-06-24T06:45:05;99197.38;;;23.03;77.91
49342;BME280;35210;41.606;-87.602;2023-06-24T06:47:33;99200.72;;;22.98;78.01
49342;BME280;35210;41.606;-87.602;2023-06-24T06:50:02;99199.25;;;22.96;77.88
49342;BME280;35210;41.606;-87.602;2023-06-24T06:52:32;99190.13;;;22.90;77.90
49342;BME280;35210;41.606;-87.602;2023-06-24T06:55:00;99197.38;;;22.89;77.70
49342;BME280;35210;41.606;-87.602;2023-06-24T06:57:28;99200.28;;;22.88;78.06
49342;BME280;35210;41.606;-87.602;2023-06-24T06:59:58;99194.06;;;22.87;78.23
49342;BME280;35210;41.606;-87.602;2023-06-24T07:02:26;99196.13;;;22.85;78.68
49342;BME280;35210;41.606;-87.602;2023-06-24T07:04:54;99194.66;;;22.83;78.65
49342;BME280;35210;41.606;-87.602;2023-06-24T07:07:22;99199.63;;;22.79;78.59
49342;BME280;35210;41.606;-87.602;2023-06-24T07:09:51;99197.31;;;22.76;78.40
49342;BME280;35210;41.606;-87.602;2023-06-24T07:12:19;99198.75;;;22.72;78.67
49342;BME280;35210;41.606;-87.602;2023-06-24T07:14:50;99202.47;;;22.71;79.13
49342;BME280;35210;41.606;-87.602;2023-06-24T07:17:18;99196.03;;;22.66;78.97
49342;BME280;35210;41.606;-87.602;2023-06-24T07:19:47;99197.84;;;22.58;79.82
49342;BME280;35210;41.606;-87.602;2023-06-24T07:22:15;99199.09;;;22.56;79.87
49342;BME280;35210;41.606;-87.602;2023-06-24T07:24:43;99203.22;;;22.52;79.82
49342;BME280;35210;41.606;-87.602;2023-06-24T07:27:13;99205.28;;;22.50;79.69
49342;BME280;35210;41.606;-87.602;2023-06-24T07:29:41;99204.84;;;22.46;80.30
49342;BME280;35210;41.606;-87.602;2023-06-24T07:32:09;99203.38;;;22.44;81.00
49342;BME280;35210;41.606;-87.602;2023-06-24T07:34:37;99201.09;;;22.41;81.81
49342;BME280;35210;41.606;-87.602;2023-06-24T07:37:05;99205.44;;;22.42;81.73
49342;BME280;35210;41.606;-87.602;2023-06-24T07:39:33;99201.09;;;22.41;81.90
49342;BME280;35210;41.606;-87.602;2023-06-24T07:42:02;99210.19;;;22.40;81.53
49342;BME280;35210;41.606;-87.602;2023-06-24T07:44:32;99204.78;;;22.33;81.76
49342;BME280;35210;41.606;-87.602;2023-06-24T07:47:00;99208.88;;;22.29;81.58
49342;BME280;35210;41.606;-87.602;2023-06-24T07:49:28;99219.25;;;22.25;81.83
49342;BME280;35210;41.606;-87.602;2023-06-24T07:51:56;99205.16;;;22.23;82.08
49342;BME280;35210;41.606;-87.602;2023-06-24T07:54:24;99213.22;;;22.23;81.71
49342;BME280;35210;41.606;-87.602;2023-06-24T07:56:52;99220.47;;;22.23;81.79
49342;BME280;35210;41.606;-87.602;2023-06-24T07:59:22;99209.91;;;22.21;81.83
49342;BME280;35210;41.606;-87.602;2023-06-24T08:01:52;99209.50;;;22.24;81.80
49342;BME280;35210;41.606;-87.602;2023-06-24T08:04:20;99210.53;;;22.23;82.11
49342;BME280;35210;41.606;-87.602;2023-06-24T08:06:48;99215.09;;;22.23;82.22
49342;BME280;35210;41.606;-87.602;2023-06-24T08:09:17;99215.28;;;22.21;82.48
49342;BME280;35210;41.606;-87.602;2023-06-24T08:11:45;99213.63;;;22.20;82.17
49342;BME280;35210;41.606;-87.602;2023-06-24T08:14:14;99203.91;;;22.19;82.12
49342;BME280;35210;41.606;-87.602;2023-06-24T08:16:42;99209.28;;;22.19;81.85
49342;BME280;35210;41.606;-87.602;2023-06-24T08:19:12;99209.28;;;22.19;81.70
49342;BME280;35210;41.606;-87.602;2023-06-24T08:21:40;99213.63;;;22.20;81.62
49342;BME280;35210;41.606;-87.602;2023-06-24T08:24:08;99212.59;;;22.21;81.58
49342;BME280;35210;41.606;-87.602;2023-06-24T08:26:36;99214.66;;;22.19;81.90
49342;BME280;35210;41.606;-87.602;2023-06-24T08:29:04;99215.06;;;22.16;81.98
49342;BME280;35210;41.606;-87.602;2023-06-24T08:31:33;99217.75;;;22.16;81.94
49342;BME280;35210;41.606;-87.602;2023-06-24T08:34:01;99213.78;;;22.12;81.67
49342;BME280;35210;41.606;-87.602;2023-06-24T08:36:33;99211.25;;;22.04;82.48
49342;BME280;35210;41.606;-87.602;2023-06-24T08:39:02;99216.00;;;22.02;82.60
49342;BME280;35210;41.606;-87.602;2023-06-24T08:41:30;99225.06;;;22.01;82.45
49342;BME280;35210;41.606;-87.602;2023-06-24T08:43:59;99224.41;;;21.99;82.47
49342;BME280;35210;41.606;-87.602;2023-06-24T08:46:27;99227.75;;;22.01;82.39
49342;BME280;35210;41.606;-87.602;2023-06-24T08:49:01;99230.63;;;22.00;82.34
49342;BME280;35210;41.606;-87.602;2023-06-24T08:51:34;99234.34;;;21.98;82.64
49342;BME280;35210;41.606;-87.602;2023-06-24T08:54:05;99235.56;;;21.96;82.78
49342;BME280;35210;41.606;-87.602;2023-06-24T08:56:35;99229.56;;;21.94;83.59
49342;BME280;35210;41.606;-87.602;2023-06-24T08:59:04;99230.56;;;21.93;83.88
49342;BME280;35210;41.606;-87.602;2023-06-24T09:01:33;99227.25;;;21.91;84.37
49342;BME280;35210;41.606;-87.602;2023-06-24T09:04:01;99234.28;;;21.92;84.52
49342;BME280;35210;41.606;-87.602;2023-06-24T09:06:30;99230.56;;;21.93;84.69
49342;BME280;35210;41.606;-87.602;2023-06-24T09:09:00;99230.56;;;21.93;84.58
49342;BME280;35210;41.606;-87.602;2023-06-24T09:11:29;99232.63;;;21.91;84.46
49342;BME280;35210;41.606;-87.602;2023-06-24T09:13:59;99232.00;;;21.89;84.41
49342;BME280;35210;41.606;-87.602;2023-06-24T09:16:29;99229.31;;;21.89;84.65
49342;BME280;35210;41.606;-87.602;2023-06-24T09:18:57;99238.41;;;21.88;84.64
49342;BME280;35210;41.606;-87.602;2023-06-24T09:21:27;99246.84;;;21.85;84.95
49342;BME280;35210;41.606;-87.602;2023-06-24T09:23:59;99253.25;;;21.84;84.62
49342;BME280;35210;41.606;-87.602;2023-06-24T09:26:27;99253.63;;;21.81;84.37
49342;BME280;35210;41.606;-87.602;2023-06-24T09:28:57;99251.97;;;21.80;84.31
49342;BME280;35210;41.606;-87.602;2023-06-24T09:31:25;99251.16;;;21.79;84.05
49342;BME280;35210;41.606;-87.602;2023-06-24T09:33:57;99248.66;;;21.78;84.33
49342;BME280;35210;41.606;-87.602;2023-06-24T09:36:26;99251.34;;;21.78;84.39
49342;BME280;35210;41.606;-87.602;2023-06-24T09:38:54;99261.47;;;21.76;84.17
49342;BME280;35210;41.606;-87.602;2023-06-24T09:41:25;99268.50;;;21.77;83.91
49342;BME280;35210;41.606;-87.602;2023-06-24T09:43:58;99263.50;;;21.74;84.03
49342;BME280;35210;41.606;-87.602;2023-06-24T09:46:27;99271.56;;;21.74;83.66
49342;BME280;35210;41.606;-87.602;2023-06-24T09:48:56;99279.81;;;21.72;84.00
49342;BME280;35210;41.606;-87.602;2023-06-24T09:51:25;99290.75;;;21.71;84.10
49342;BME280;35210;41.606;-87.602;2023-06-24T09:53:53;99294.47;;;21.70;84.28
49342;BME280;35210;41.606;-87.602;2023-06-24T09:56:25;99286.59;;;21.68;84.90
49342;BME280;35210;41.606;-87.602;2023-06-24T09:58:54;99293.19;;;21.65;85.21
49342;BME280;35210;41.606;-87.602;2023-06-24T10:01:22;99300.63;;;21.63;85.15
49342;BME280;35210;41.606;-87.602;2023-06-24T10:03:51;99294.22;;;21.64;85.01
49342;BME280;35210;41.606;-87.602;2023-06-24T10:06:19;99286.53;;;21.61;85.41
49342;BME280;35210;41.606;-87.602;2023-06-24T10:08:47;99287.56;;;21.60;85.86
49342;BME280;35210;41.606;-87.602;2023-06-24T10:11:17;99287.75;;;21.59;86.37
49342;BME280;35210;41.606;-87.602;2023-06-24T10:13:47;99290.63;;;21.57;86.20
49342;BME280;35210;41.606;-87.602;2023-06-24T10:16:15;99281.53;;;21.52;86.58
49342;BME280;35210;41.606;-87.602;2023-06-24T10:18:44;99286.81;;;21.45;86.67
49342;BME280;35210;41.606;-87.602;2023-06-24T10:21:15;99289.50;;;21.45;86.58
49342;BME280;35210;41.606;-87.602;2023-06-24T10:23:51;99286.38;;;21.42;86.72
49342;BME280;35210;41.606;-87.602;2023-06-24T10:26:25;99280.19;;;21.41;86.60
49342;BME280;35210;41.606;-87.602;2023-06-24T10:29:14;99287.22;;;21.42;86.40
49342;BME280;35210;41.606;-87.602;2023-06-24T10:31:53;99289.91;;;21.42;86.29
49342;BME280;35210;41.606;-87.602;2023-06-24T10:34:31;99295.28;;;21.42;86.22
49342;BME280;35210;41.606;-87.602;2023-06-24T10:37:01;99310.75;;;21.40;86.22
49342;BME280;35210;41.606;-87.602;2023-06-24T10:39:40;99305.38;;;21.40;85.85
49342;BME280;35210;41.606;-87.602;2023-06-24T10:42:37;99299.94;;;21.34;86.66
49342;BME280;35210;41.606;-87.602;2023-06-24T10:45:20;99297.81;;;21.29;87.87
49342;BME280;35210;41.606;-87.602;2023-06-24T10:47:50;99300.88;;;21.26;88.06
49342;BME280;35210;41.606;-87.602;2023-06-24T10:50:22;99305.59;;;21.24;88.22
49342;BME280;35210;41.606;-87.602;2023-06-24T10:52:51;99300.56;;;21.21;88.46
49342;BME280;35210;41.606;-87.602;2023-06-24T10:55:23;99314.00;;;21.21;88.26
49342;BME280;35210;41.606;-87.602;2023-06-24T10:57:52;99310.34;;;21.22;88.24
49342;BME280;35210;41.606;-87.602;2023-06-24T11:00:22;99315.69;;;21.22;88.26
49342;BME280;35210;41.606;-87.602;2023-06-24T11:02:50;99328.28;;;21.21;88.43
49342;BME280;35210;41.606;-87.602;2023-06-24T11:05:18;99328.09;;;21.23;88.27
49342;BME280;35210;41.606;-87.602;2023-06-24T11:07:46;99326.25;;;21.23;88.18
49342;BME280;35210;41.606;-87.602;2023-06-24T11:10:15;99323.38;;;21.25;88.11
49342;BME280;35210;41.606;-87.602;2023-06-24T11:12:43;99331.91;;;21.28;87.86
49342;BME280;35210;41.606;-87.602;2023-06-24T11:15:13;99333.75;;;21.28;87.63
49342;BME280;35210;41.606;-87.602;2023-06-24T11:17:43;99338.75;;;21.31;87.31
49342;BME280;35210;41.606;-87.602;2023-06-24T11:20:12;99351.16;;;21.32;87.24
49342;BME280;35210;41.606;-87.602;2023-06-24T11:22:40;99349.09;;;21.34;87.26
49342;BME280;35210;41.606;-87.602;2023-06-24T11:25:15;99354.09;;;21.37;87.51
49342;BME280;35210;41.606;-87.602;2023-06-24T11:27:44;99356.59;;;21.39;87.26
49342;BME280;35210;41.606;-87.602;2023-06-24T11:30:13;99352.06;;;21.39;87.25
49342;BME280;35210;41.606;-87.602;2023-06-24T11:32:45;99358.72;;;21.43;87.00
49342;BME280;35210;41.606;-87.602;2023-06-24T11:35:14;99360.00;;;21.47;86.72
49342;BME280;35210;41.606;-87.602;2023-06-24T11:37:43;99361.28;;;21.51;85.93
49342;BME280;35210;41.606;-87.602;2023-06-24T11:40:12;99367.91;;;21.55;85.64
49342;BME280;35210;41.606;-87.602;2023-06-24T11:42:42;99368.00;;;21.62;85.21
49342;BME280;35210;41.606;-87.602;2023-06-24T11:45:13;99366.19;;;21.69;84.89
49342;BME280;35210;41.606;-87.602;2023-06-24T11:47:43;99361.09;;;21.74;84.63
49342;BME280;35210;41.606;-87.602;2023-06-24T11:50:11;99359.50;;;21.80;84.35
49342;BME280;35210;41.606;-87.602;2023-06-24T11:52:41;99372.81;;;21.88;84.35
49342;BME280;35210;41.606;-87.602;2023-06-24T11:55:15;99365.63;;;21.95;84.24
49342;BME280;35210;41.606;-87.602;2023-06-24T11:57:51;99367.19;;;22.04;83.60
49342;BME280;35210;41.606;-87.602;2023-06-24T12:00:23;99377.63;;;22.14;83.34
49342;BME280;35210;41.606;-87.602;2023-06-24T12:02:55;99377.06;;;22.18;82.57
49342;BME280;35210;41.606;-87.602;2023-06-24T12:05:25;99381.00;;;22.22;82.36
49342;BME280;35210;41.606;-87.602;2023-06-24T12:08:01;99372.13;;;22.28;81.93
49342;BME280;35210;41.606;-87.602;2023-06-24T12:10:30;99365.78;;;22.36;81.85
49342;BME280;35210;41.606;-87.602;2023-06-24T12:13:00;99356.34;;;22.47;81.46
49342;BME280;35210;41.606;-87.602;2023-06-24T12:15:29;99341.75;;;22.62;80.49
49342;BME280;35210;41.606;-87.602;2023-06-24T12:17:59;99346.38;;;22.75;80.20
49342;BME280;35210;41.606;-87.602;2023-06-24T12:20:28;99347.75;;;22.92;79.47
49342;BME280;35210;41.606;-87.602;2023-06-24T12:22:56;99346.75;;;23.07;78.27
49342;BME280;35210;41.606;-87.602;2023-06-24T12:25:24;99351.16;;;23.21;78.43
49342;BME280;35210;41.606;-87.602;2023-06-24T12:27:52;99352.25;;;23.33;78.61
49342;BME280;35210;41.606;-87.602;2023-06-24T12:30:20;99358.28;;;23.42;78.47
49342;BME280;35210;41.606;-87.602;2023-06-24T12:32:49;99353.97;;;23.47;78.20
49342;BME280;35210;41.606;-87.602;2023-06-24T12:35:20;99345.72;;;23.55;77.58
49342;BME280;35210;41.606;-87.602;2023-06-24T12:37:48;99341.19;;;23.63;76.47
49342;BME280;35210;41.606;-87.602;2023-06-24T12:40:16;99338.28;;;23.71;75.41
49342;BME280;35210;41.606;-87.602;2023-06-24T12:42:44;99342.88;;;23.77;74.96
49342;BME280;35210;41.606;-87.602;2023-06-24T12:45:12;99329.16;;;23.85;74.47
49342;BME280;35210;41.606;-87.602;2023-06-24T12:47:41;99331.44;;;23.95;74.21
49342;BME280;35210;41.606;-87.602;2023-06-24T12:50:09;99336.00;;;24.01;74.01
49342;BME280;35210;41.606;-87.602;2023-06-24T12:52:39;99353.03;;;24.08;73.12
49342;BME280;35210;41.606;-87.602;2023-06-24T12:55:08;99352.41;;;24.12;72.83